Newville, PA (17241)

3:35 PM EDT on July 27, 2017 (GMT -0400)
South of Newville | | Change Station
Active Advisory: Flash Flood Watch Active Notice: Flash Flood Watch

Elev 653 ft 40.12 °N, 77.37 °W | Updated 10 seconds ago

Partly Cloudy
Partly Cloudy
83.5 °F
Feels Like 89 °F
N
3.2
Wind Variable Wind from NE

Today
High -- | Low -- °F
--% Chance of Precip.
Yesterday
High -- | Low -- °F
Precip. -- in
Pressure 29.92 in
Visibility 10.0 miles
Clouds Mostly Cloudy 3500 ft
Heat Index 89 °F
Dew Point 72 °F
Humidity 68%
Rainfall 0.00 in
Snow Depth Not available.
6:03 AM 8:28 PM
Waxing Crescent, 23% visible
METAR KCXY 271856Z 10005KT 10SM BKN035 27/21 A2992 RMK AO2 SLP130 T02670206
Pressure 29.92 in
Visibility 10.0 miles
Clouds Mostly Cloudy 3500 ft
Heat Index 89 °F
Dew Point 72 °F
Humidity 68%
Rainfall 0.00 in
Snow Depth Not available.
6:03 AM 8:28 PM
Waxing Crescent, 23% visible
METAR KCXY 271856Z 10005KT 10SM BKN035 27/21 A2992 RMK AO2 SLP130 T02670206

Get Your Daily Forecast Email!

Thanks for signing up!

Be on the lookout for a verification email in your inbox.

You'll start receiving severe weather alerts in your inbox..

×

10-Day Weather Forecast

Almanac

Astronomy

Jul. 27, 2017 Rise Set
Actual Time
Civil Twilight
Nautical Twilight
Astronomical Twilight
Moon
Length of Visible Light
Length of Day
Tomorrow will be .
, % of the Moon is Illuminated

Today's Extremes

State Highs State Lows

Community

WunderPhotos

Category 6

Welcome to Category 6. This is the collective home for Weather Underground's featured writeups by Dr. Jeff Masters (right), Bob Henson (left), Chris Burt, and other regular contributors.

Nearby

Air Quality

  Air Quality AQ Index Pollutant
Not available.

Snow Depth

Station Depth Elevation

Earthquake Activity

City Distance Mag. Time & Date
Minimum magnitude displayed is 2.5.

Coastal Water Temperatures

Place Temperature

Stations

Nearby Weather Stations

Station Location Temp. Windchill Dew Point Humidity Wind Precip. Elev Updated Type
                   

Watches & Warnings

Flash Flood Watch
Issued: 1:46 PM EDT Jul. 27, 2017 – National Weather Service

... Flash Flood Watch in effect from Friday afternoon through
Saturday afternoon...

The National Weather Service in State College has issued a

* Flash Flood Watch for a portion of central Pennsylvania,
including the following areas, Adams, Bedford, Blair, Cambria,
Cumberland, Dauphin, Franklin, Fulton, Huntingdon, Juniata,
Lancaster, Lebanon, Mifflin, Perry, Somerset, and York.

* From Friday afternoon through Saturday afternoon

* heavy rainfall of two to three inches with local amounts of
over four inches is possible, especially in higher terrains.
Areas that received the heavy rainfall last weekend are most
susceptible to flooding.

Precautionary/preparedness actions...

Review flood safety and preparedness information at
weather.Gov/flood.


CR